createdAt,value
2023-08-31T00:19:51.315Z,73.42
2023-08-31T00:24:00.724Z,73.50
2023-08-31T00:28:10.221Z,73.58
2023-08-31T00:32:08.925Z,73.63
2023-08-31T00:52:26.455Z,73.82
2023-08-31T00:56:36.029Z,73.83
2023-08-31T01:00:45.074Z,73.87
2023-08-31T01:05:09.610Z,73.81
2023-08-31T01:09:26.295Z,73.76
2023-08-31T01:13:36.759Z,73.83
2023-08-31T01:17:45.669Z,73.84
2023-08-31T01:50:32.658Z,74.26
2023-08-31T01:54:41.411Z,74.35
2023-08-31T01:58:50.434Z,74.40
2023-08-31T02:14:59.201Z,74.52
2023-08-31T02:19:08.275Z,74.52
2023-08-31T02:23:18.519Z,74.58
2023-08-31T02:43:33.394Z,74.57
2023-08-31T02:47:43.706Z,74.60
2023-08-31T02:51:53.853Z,74.51
2023-08-31T02:55:59.435Z,74.48
2023-08-31T03:12:06.407Z,74.56
2023-08-31T03:15:57.697Z,74.57
2023-08-31T03:20:06.143Z,74.63
2023-08-31T03:24:18.902Z,74.76
2023-08-31T03:44:32.678Z,74.86
2023-08-31T03:48:41.782Z,74.94
2023-08-31T03:52:50.560Z,74.98
2023-08-31T04:00:41.402Z,74.99
2023-08-31T04:04:50.929Z,75.09
2023-08-31T04:09:01.291Z,75.19
2023-08-31T04:25:14.641Z,75.32
2023-08-31T04:29:23.459Z,75.38
2023-08-31T04:33:26.156Z,75.29
2023-08-31T04:37:35.563Z,75.26
2023-08-31T04:41:46.711Z,75.28
2023-08-31T04:45:49.162Z,75.18
2023-08-31T05:06:01.135Z,75.13
2023-08-31T05:10:12.637Z,75.09
2023-08-31T05:14:22.478Z,75.14
2023-08-31T05:18:31.791Z,75.17
2023-08-31T05:38:47.316Z,74.89
2023-08-31T05:42:58.779Z,74.93
2023-08-31T05:47:08.412Z,74.89
2023-08-31T05:51:17.824Z,74.86
2023-08-31T05:55:18.313Z,74.92
2023-08-31T06:03:05.408Z,74.85
2023-08-31T06:07:15.043Z,74.84
2023-08-31T06:11:25.383Z,74.80
2023-08-31T06:15:14.801Z,74.88
2023-08-31T06:19:24.171Z,74.90
2023-08-31T06:23:12.497Z,74.92
2023-08-31T06:26:56.489Z,74.99
2023-08-31T06:31:08.946Z,74.94
2023-08-31T06:35:19.222Z,75.08
2023-08-31T06:59:30.962Z,75.46
2023-08-31T07:03:40.416Z,75.50
2023-08-31T07:07:50.233Z,75.40
2023-08-31T07:11:33.138Z,75.58
2023-08-31T07:14:28.928Z,75.59
2023-08-31T07:18:31.801Z,75.59
2023-08-31T07:22:42.427Z,75.56
2023-08-31T07:31:46.858Z,75.12
2023-08-31T07:35:36.120Z,75.10
2023-08-31T07:39:44.856Z,74.93
2023-08-31T07:44:04.090Z,74.83
2023-08-31T07:48:06.710Z,74.66
2023-08-31T07:51:38.911Z,74.68
2023-08-31T07:55:49.070Z,74.51
2023-08-31T07:59:52.155Z,74.35
2023-08-31T08:03:55.631Z,74.29
2023-08-31T08:07:44.814Z,74.24
2023-08-31T08:11:23.988Z,74.23
2023-08-31T08:27:11.111Z,74.27
2023-08-31T08:30:42.879Z,74.52
2023-08-31T08:34:55.151Z,74.50
2023-08-31T08:39:04.731Z,74.38
2023-08-31T08:59:01.864Z,73.43
2023-08-31T09:03:11.098Z,73.19
2023-08-31T09:07:21.810Z,73.19
2023-08-31T09:11:31.245Z,73.24
2023-08-31T09:27:37.857Z,72.82
2023-08-31T09:31:46.886Z,72.73
2023-08-31T09:35:46.357Z,72.26
2023-08-31T09:59:56.702Z,71.04
2023-08-31T10:04:06.285Z,70.74
2023-08-31T10:08:16.317Z,70.74
2023-08-31T10:25:41.650Z,69.94
2023-08-31T10:29:52.130Z,69.41
2023-08-31T10:34:04.114Z,69.11
2023-08-31T10:38:12.541Z,68.18
2023-08-31T10:50:21.751Z,67.04
2023-08-31T10:54:31.233Z,66.65
2023-08-31T10:58:36.087Z,66.22
2023-08-31T11:02:38.118Z,65.51
2023-08-31T11:06:46.822Z,65.23
2023-08-31T11:28:13.914Z,64.00
2023-08-31T11:32:23.080Z,64.47
2023-08-31T11:36:32.945Z,64.85
2023-08-31T11:40:44.128Z,65.50
2023-08-31T11:56:45.214Z,66.58
2023-08-31T12:00:55.030Z,66.41
2023-08-31T12:05:03.826Z,66.22
2023-08-31T12:09:13.562Z,66.39
2023-08-31T12:25:21.146Z,66.64
2023-08-31T12:29:32.625Z,66.46
2023-08-31T12:33:32.435Z,66.46
2023-08-31T12:53:42.120Z,63.68
2023-08-31T12:57:52.066Z,63.10
2023-08-31T13:02:02.677Z,62.78
2023-08-31T13:21:49.825Z,61.06
2023-08-31T13:26:01.009Z,59.90
2023-08-31T13:30:10.942Z,59.23
2023-08-31T13:34:21.413Z,58.36
2023-08-31T13:54:20.665Z,55.99
2023-08-31T13:58:29.618Z,56.33
2023-08-31T14:02:40.183Z,56.83
2023-08-31T14:06:30.175Z,57.22
2023-08-31T14:22:31.579Z,59.02
2023-08-31T14:26:43.338Z,58.69
2023-08-31T14:30:52.169Z,58.38
2023-08-31T14:35:02.929Z,57.74
2023-08-31T14:51:05.039Z,55.68
2023-08-31T14:55:06.460Z,55.64
2023-08-31T14:59:15.675Z,55.68
2023-08-31T15:03:25.061Z,55.62
2023-08-31T15:23:32.848Z,53.95
2023-08-31T15:27:43.236Z,53.56
2023-08-31T15:31:55.918Z,53.57
2023-08-31T15:36:04.498Z,53.25
2023-08-31T15:52:05.651Z,52.57
2023-08-31T15:56:14.474Z,52.59
2023-08-31T16:00:22.967Z,52.47
2023-08-31T16:24:41.022Z,53.24
2023-08-31T16:28:50.012Z,53.19
2023-08-31T16:32:59.034Z,53.35
2023-08-31T16:50:04.888Z,54.59
2023-08-31T16:53:54.864Z,54.73
2023-08-31T16:58:03.782Z,55.01
2023-08-31T17:02:15.001Z,55.44
2023-08-31T17:19:47.009Z,57.41
2023-08-31T17:23:58.404Z,57.73
2023-08-31T17:28:10.129Z,57.97
2023-08-31T17:32:35.683Z,58.32
2023-08-31T17:36:54.416Z,58.83
2023-08-31T17:41:13.445Z,59.24
2023-08-31T17:45:20.382Z,59.65
2023-08-31T18:15:06.753Z,61.61
2023-08-31T18:19:37.662Z,61.86
2023-08-31T18:24:07.219Z,62.03
2023-08-31T18:28:24.923Z,62.21
2023-08-31T18:50:07.919Z,63.31
2023-08-31T18:54:17.232Z,63.49
2023-08-31T18:58:46.210Z,63.81
2023-08-31T19:03:19.711Z,64.00
2023-08-31T19:08:05.641Z,64.21
2023-08-31T19:12:25.955Z,64.56
2023-08-31T19:42:55.121Z,65.91
2023-08-31T19:47:15.425Z,66.18
2023-08-31T20:04:29.349Z,66.80
2023-08-31T20:08:47.045Z,67.03
2023-08-31T20:13:17.484Z,67.16
2023-08-31T20:17:40.974Z,67.35
2023-08-31T20:40:08.863Z,67.93
2023-08-31T20:44:38.893Z,67.96
2023-08-31T21:06:26.657Z,68.32
2023-08-31T21:10:56.580Z,68.51
2023-08-31T21:15:27.940Z,68.59
2023-08-31T21:37:13.390Z,68.97
2023-08-31T21:41:42.189Z,68.87
2023-08-31T21:46:11.088Z,69.13
2023-08-31T22:08:06.954Z,69.57
2023-08-31T22:12:28.069Z,69.78
2023-08-31T22:17:01.153Z,69.88
2023-08-31T22:38:59.783Z,70.43
2023-08-31T22:43:01.798Z,70.59
2023-08-31T22:47:19.771Z,70.69
2023-08-31T23:09:10.028Z,70.93
2023-08-31T23:13:40.213Z,70.85
2023-08-31T23:39:48.537Z,71.12
2023-08-31T23:44:19.734Z,71.32
